Time;durP1;ratioP1;P1;durP2;ratioP2;P2;SDS_P1;SDS_P2;PMS_P1;PMS_P2;Temp;Humidity;BMP_temperature;BMP_pressure;BME280_temperature;BME280_humidity;BME280_pressure;Samples;Min_cycle;Max_cycle;Signal;HPM_P1;HPM_P2
2021/07/30 00:01:47;;;;;;;7.90;5.90;;;10.90;99.90;;;;;;5072442;28;20299;-85
2021/07/30 00:04:14;;;;;;;6.85;6.10;;;11.00;99.90;;;;;;5072807;28;20076;-86
2021/07/30 00:06:41;;;;;;;8.57;7.00;;;11.00;99.90;;;;;;5072128;28;20139;-85
2021/07/30 00:09:08;;;;;;;7.20;6.18;;;11.10;99.90;;;;;;5073556;28;20048;-86
2021/07/30 00:11:34;;;;;;;9.45;6.55;;;11.00;99.90;;;;;;5072460;28;20140;-86
2021/07/30 00:14:01;;;;;;;8.32;7.15;;;11.00;99.90;;;;;;5072348;28;20052;-85
2021/07/30 00:16:28;;;;;;;8.25;6.20;;;10.90;99.90;;;;;;5071831;28;20047;-86
2021/07/30 00:18:55;;;;;;;9.80;7.70;;;10.90;99.90;;;;;;5074239;28;20052;-86
2021/07/30 00:21:22;;;;;;;10.55;7.53;;;10.90;99.90;;;;;;5086378;28;20132;-85
2021/07/30 00:23:49;;;;;;;9.75;6.93;;;10.90;99.90;;;;;;5074723;28;20135;-85
2021/07/30 00:26:16;;;;;;;9.30;6.60;;;10.90;99.90;;;;;;5072088;28;20049;-84
2021/07/30 00:28:43;;;;;;;8.77;7.03;;;10.90;99.90;;;;;;5073073;28;20073;-85
2021/07/30 00:31:09;;;;;;;8.85;6.50;;;10.90;99.90;;;;;;5073178;28;20056;-85
2021/07/30 00:33:36;;;;;;;7.97;5.95;;;10.90;99.90;;;;;;5073109;28;20059;-86
2021/07/30 00:36:03;;;;;;;12.57;6.63;;;10.90;99.90;;;;;;5072768;28;20071;-85
2021/07/30 00:38:30;;;;;;;7.57;6.75;;;10.80;99.90;;;;;;5073204;28;20079;-85
2021/07/30 00:41:00;;;;;;;7.22;6.55;;;10.70;99.90;;;;;;5073057;28;20132;-86
2021/07/30 00:43:27;;;;;;;7.05;6.35;;;10.70;99.90;;;;;;5071841;28;20526;-85
2021/07/30 00:45:55;;;;;;;8.50;6.20;;;10.70;99.90;;;;;;5071691;28;20123;-85
2021/07/30 00:48:23;;;;;;;11.20;5.82;;;10.70;99.90;;;;;;5073005;28;20068;-85
2021/07/30 00:50:51;;;;;;;7.85;6.43;;;10.60;99.90;;;;;;5071670;28;20542;-85
2021/07/30 00:53:19;;;;;;;6.28;5.65;;;10.60;99.90;;;;;;5071627;28;20088;-85
2021/07/30 00:55:48;;;;;;;10.80;6.80;;;10.60;99.90;;;;;;5073960;28;20049;-85
2021/07/30 00:58:15;;;;;;;10.77;7.20;;;10.60;99.90;;;;;;5075542;28;20052;-85
2021/07/30 01:00:42;;;;;;;7.93;6.53;;;10.60;99.90;;;;;;5074485;28;20408;-85
2021/07/30 01:03:11;;;;;;;12.23;7.72;;;10.70;99.90;;;;;;5075095;28;20045;-85
2021/07/30 01:05:38;;;;;;;8.43;6.78;;;10.70;99.90;;;;;;5075630;28;20052;-85
2021/07/30 01:08:05;;;;;;;9.18;6.90;;;10.70;99.90;;;;;;5074813;28;20127;-85
2021/07/30 01:10:32;;;;;;;7.63;6.93;;;10.70;99.90;;;;;;5075985;28;20045;-85
2021/07/30 01:12:59;;;;;;;12.20;7.45;;;10.70;99.90;;;;;;5075811;28;20112;-85
2021/07/30 01:15:26;;;;;;;8.48;6.68;;;10.70;99.90;;;;;;5075011;28;20403;-85
2021/07/30 01:17:53;;;;;;;9.40;6.40;;;10.70;99.90;;;;;;5075236;28;20048;-85
2021/07/30 01:20:26;;;;;;;11.52;7.15;;;10.70;99.90;;;;;;5075595;28;20412;-85
2021/07/30 01:22:58;;;;;;;7.65;6.82;;;10.60;99.90;;;;;;5075736;28;20052;-85
2021/07/30 01:25:27;;;;;;;7.03;6.32;;;10.60;99.90;;;;;;5075144;28;20044;-85
2021/07/30 01:27:55;;;;;;;6.57;5.97;;;10.60;99.90;;;;;;5075880;28;20080;-85
2021/07/30 01:30:23;;;;;;;10.25;6.55;;;10.50;99.90;;;;;;5076182;28;20435;-85
2021/07/30 01:32:51;;;;;;;10.38;6.97;;;10.50;99.90;;;;;;5075250;28;20048;-86
2021/07/30 01:35:17;;;;;;;9.95;6.88;;;10.40;99.90;;;;;;5076435;28;20400;-86
2021/07/30 01:37:44;;;;;;;9.10;6.60;;;10.40;99.90;;;;;;5074762;28;20051;-85
2021/07/30 01:40:11;;;;;;;7.75;6.85;;;10.40;99.90;;;;;;5075167;28;20059;-85
2021/07/30 01:42:39;;;;;;;9.75;7.50;;;10.40;99.90;;;;;;5074977;28;20044;-86
2021/07/30 01:45:07;;;;;;;9.23;7.75;;;10.30;99.90;;;;;;5073827;28;20056;-85
2021/07/30 01:47:35;;;;;;;13.32;8.15;;;10.30;99.90;;;;;;5074915;28;20131;-85
2021/07/30 01:50:03;;;;;;;9.77;7.57;;;10.30;99.90;;;;;;5074891;28;20055;-85
2021/07/30 01:52:29;;;;;;;9.52;7.30;;;10.40;99.90;;;;;;5075662;28;20048;-85
2021/07/30 01:54:57;;;;;;;8.63;7.30;;;10.30;99.90;;;;;;5074631;28;20048;-85
2021/07/30 01:57:23;;;;;;;12.32;8.00;;;10.30;99.90;;;;;;5074297;28;20492;-85
2021/07/30 01:59:50;;;;;;;14.60;8.38;;;10.30;99.90;;;;;;5074782;28;20044;-86
2021/07/30 02:02:17;;;;;;;8.45;6.80;;;10.30;99.90;;;;;;5074346;28;20044;-86
2021/07/30 02:04:44;;;;;;;8.00;6.90;;;10.40;99.90;;;;;;5075852;28;20167;-86
2021/07/30 02:07:11;;;;;;;13.93;7.40;;;10.30;99.90;;;;;;5073437;28;20420;-85
2021/07/30 02:09:37;;;;;;;10.13;6.75;;;10.40;99.90;;;;;;5074753;28;20048;-86
2021/07/30 02:12:04;;;;;;;8.70;7.07;;;10.30;99.90;;;;;;5075632;28;20477;-85
2021/07/30 02:14:32;;;;;;;8.73;7.75;;;10.20;99.90;;;;;;5074694;28;20048;-86
2021/07/30 02:16:59;;;;;;;9.00;7.82;;;10.10;99.90;;;;;;5075903;28;20053;-86
2021/07/30 02:19:26;;;;;;;9.35;8.40;;;10.10;99.90;;;;;;5074264;28;20049;-86
2021/07/30 02:21:54;;;;;;;9.88;6.85;;;10.10;99.90;;;;;;5075743;28;20074;-85
2021/07/30 02:24:22;;;;;;;11.15;7.47;;;10.00;99.90;;;;;;5074309;28;20476;-85
2021/07/30 02:26:49;;;;;;;13.10;8.20;;;9.90;99.90;;;;;;5075481;28;20083;-85
2021/07/30 02:29:16;;;;;;;9.85;7.43;;;9.90;99.90;;;;;;5074469;28;20040;-85
2021/07/30 02:31:42;;;;;;;8.90;7.13;;;9.90;99.90;;;;;;5074118;28;20408;-86
2021/07/30 02:34:09;;;;;;;9.55;7.38;;;9.80;99.90;;;;;;5074217;28;20090;-85
2021/07/30 02:36:40;;;;;;;10.82;7.35;;;9.80;99.90;;;;;;5074140;28;20496;-86
2021/07/30 02:39:07;;;;;;;9.05;8.15;;;9.90;99.90;;;;;;5075264;28;20139;-85
2021/07/30 02:41:34;;;;;;;10.63;7.57;;;9.80;99.90;;;;;;5075413;28;20048;-86
2021/07/30 02:44:01;;;;;;;9.57;8.05;;;9.80;99.90;;;;;;5074213;28;20052;-86
2021/07/30 02:46:27;;;;;;;13.82;7.97;;;9.80;99.90;;;;;;5073898;28;20450;-85
2021/07/30 02:48:54;;;;;;;11.27;7.63;;;9.70;99.90;;;;;;5075103;28;20113;-86
2021/07/30 02:51:21;;;;;;;11.15;7.65;;;9.60;99.90;;;;;;5074087;28;20048;-86
2021/07/30 02:53:48;;;;;;;9.45;6.93;;;9.50;99.90;;;;;;5074000;28;20473;-85
2021/07/30 02:56:15;;;;;;;8.02;7.22;;;9.50;99.90;;;;;;5073790;28;20052;-86
2021/07/30 02:58:41;;;;;;;8.15;7.32;;;9.50;99.90;;;;;;5074035;28;20132;-85
2021/07/30 03:01:08;;;;;;;10.80;8.30;;;9.50;99.90;;;;;;5074048;28;20045;-86
2021/07/30 03:03:35;;;;;;;9.88;7.40;;;9.40;99.90;;;;;;5074874;28;20076;-86
2021/07/30 03:06:02;;;;;;;8.65;7.28;;;9.40;99.90;;;;;;5073692;28;20412;-85
2021/07/30 03:08:29;;;;;;;8.55;7.38;;;9.40;99.90;;;;;;5074892;28;20138;-86
2021/07/30 03:10:56;;;;;;;9.02;7.13;;;9.50;99.90;;;;;;5073228;28;20123;-86
2021/07/30 03:13:24;;;;;;;8.18;7.13;;;9.40;99.90;;;;;;5074588;28;20410;-85
2021/07/30 03:15:55;;;;;;;7.97;7.22;;;9.40;99.90;;;;;;5073281;28;20140;-85
2021/07/30 03:18:22;;;;;;;11.18;8.25;;;9.40;99.90;;;;;;5073744;28;20059;-85
2021/07/30 03:20:49;;;;;;;9.75;7.68;;;9.30;99.90;;;;;;5074181;28;20051;-86
2021/07/30 03:23:15;;;;;;;13.55;8.30;;;9.40;99.90;;;;;;5073715;28;20083;-86
2021/07/30 03:25:42;;;;;;;13.38;7.68;;;9.30;99.90;;;;;;5073242;28;20049;-84
2021/07/30 03:28:09;;;;;;;8.48;7.65;;;9.30;99.90;;;;;;5073095;28;20048;-85
2021/07/30 03:30:36;;;;;;;8.48;7.55;;;9.30;99.90;;;;;;5073145;28;20044;-85
2021/07/30 03:33:03;;;;;;;14.10;8.20;;;9.30;99.90;;;;;;5072713;28;20055;-85
2021/07/30 03:35:30;;;;;;;11.68;8.02;;;9.30;99.90;;;;;;5072377;28;20067;-85
2021/07/30 03:37:57;;;;;;;10.50;8.15;;;9.40;99.90;;;;;;5073573;28;20049;-85
2021/07/30 03:40:24;;;;;;;14.40;8.63;;;9.40;99.90;;;;;;5072577;28;20076;-86
2021/07/30 03:42:51;;;;;;;9.90;7.53;;;9.40;99.90;;;;;;5074179;28;20045;-85
2021/07/30 03:45:18;;;;;;;12.13;7.82;;;9.40;99.90;;;;;;5072903;28;20059;-85
2021/07/30 03:47:44;;;;;;;12.93;8.00;;;9.30;99.90;;;;;;5072846;28;20059;-85
2021/07/30 03:50:11;;;;;;;9.15;7.63;;;9.20;99.90;;;;;;5073771;28;20536;-86
2021/07/30 03:52:38;;;;;;;13.52;8.57;;;9.20;99.90;;;;;;5072646;28;20048;-85
2021/07/30 03:55:06;;;;;;;14.15;9.02;;;9.20;99.90;;;;;;5072649;28;20078;-85
2021/07/30 03:57:33;;;;;;;11.75;8.65;;;9.20;99.90;;;;;;5072659;28;20046;-86
2021/07/30 03:59:59;;;;;;;16.50;9.00;;;9.30;99.90;;;;;;5072332;28;20058;-85
2021/07/30 04:02:27;;;;;;;11.13;8.63;;;9.20;99.90;;;;;;5072457;28;20041;-85
2021/07/30 04:04:54;;;;;;;10.63;8.38;;;9.30;99.90;;;;;;5073575;28;20469;-86
2021/07/30 04:07:21;;;;;;;12.32;8.90;;;9.40;99.90;;;;;;5073608;28;20054;-85
2021/07/30 04:09:47;;;;;;;10.70;8.40;;;9.40;99.90;;;;;;5072635;28;20048;-85
2021/07/30 04:12:14;;;;;;;9.30;8.40;;;9.40;99.90;;;;;;5072493;28;20080;-85
2021/07/30 04:14:45;;;;;;;10.30;8.63;;;9.40;99.90;;;;;;5073314;28;20132;-86
2021/07/30 04:17:12;;;;;;;11.15;8.40;;;9.40;99.90;;;;;;5073596;28;20057;-86
2021/07/30 04:19:43;;;;;;;16.38;8.23;;;9.50;99.90;;;;;;5072842;28;20056;-85
2021/07/30 04:22:11;;;;;;;9.57;8.68;;;9.50;99.90;;;;;;5072170;28;20143;-85
2021/07/30 04:24:38;;;;;;;14.65;10.30;;;9.50;99.90;;;;;;5072302;28;20113;-86
2021/07/30 04:27:06;;;;;;;12.23;9.35;;;9.50;99.90;;;;;;5072014;28;20135;-86
2021/07/30 04:29:40;;;;;;;11.00;9.88;;;9.50;99.90;;;;;;5072503;28;20074;-86
2021/07/30 04:32:09;;;;;;;13.52;10.20;;;9.50;99.90;;;;;;5072120;28;20066;-85
2021/07/30 04:34:37;;;;;;;11.45;9.95;;;9.50;99.90;;;;;;5073043;28;20098;-85
2021/07/30 04:37:05;;;;;;;12.05;8.90;;;9.60;99.90;;;;;;5073155;28;20127;-85
2021/07/30 04:39:32;;;;;;;11.07;9.98;;;9.70;99.90;;;;;;5072032;28;20059;-85
2021/07/30 04:42:01;;;;;;;12.73;10.70;;;9.80;99.90;;;;;;5071821;28;20056;-85
2021/07/30 04:44:28;;;;;;;14.50;11.00;;;9.90;99.90;;;;;;5071819;28;20135;-85
2021/07/30 04:46:55;;;;;;;11.07;9.93;;;10.00;99.90;;;;;;5071727;28;20056;-85
2021/07/30 04:49:22;;;;;;;10.20;9.15;;;10.10;99.90;;;;;;5071875;28;20055;-86
2021/07/30 04:52:00;;;;;;;11.02;9.00;;;10.10;99.90;;;;;;5071757;28;20489;-85
2021/07/30 04:54:27;;;;;;;12.00;8.25;;;10.30;99.90;;;;;;5071746;28;20106;-85
2021/07/30 04:56:54;;;;;;;9.30;8.23;;;10.40;99.90;;;;;;5072017;28;20519;-85
2021/07/30 04:59:20;;;;;;;9.55;7.90;;;10.40;99.90;;;;;;5071619;28;20044;-86
2021/07/30 05:01:47;;;;;;;9.38;7.75;;;10.50;99.90;;;;;;5071628;28;20052;-84
2021/07/30 05:04:14;;;;;;;7.38;6.75;;;10.60;99.90;;;;;;5071709;28;20094;-85
2021/07/30 05:06:41;;;;;;;7.25;6.32;;;10.70;99.90;;;;;;5070976;28;20538;-85
2021/07/30 05:09:08;;;;;;;6.22;5.63;;;10.70;99.90;;;;;;5072594;28;20694;-84
2021/07/30 05:11:34;;;;;;;7.43;6.10;;;10.80;99.90;;;;;;5071525;28;20118;-85
2021/07/30 05:14:01;;;;;;;6.68;5.95;;;10.90;99.90;;;;;;5071665;28;20057;-84
2021/07/30 05:16:28;;;;;;;6.68;6.07;;;11.00;99.90;;;;;;5070770;28;20051;-85
2021/07/30 05:18:55;;;;;;;6.45;5.88;;;11.20;99.90;;;;;;5067461;28;20086;-85
2021/07/30 05:21:21;;;;;;;12.90;5.10;;;11.40;99.90;;;;;;5071268;28;20045;-86
2021/07/30 05:23:48;;;;;;;6.95;4.97;;;11.70;99.90;;;;;;5071711;28;20052;-85
2021/07/30 05:26:15;;;;;;;5.55;3.97;;;12.00;99.90;;;;;;5072236;28;20083;-85
2021/07/30 05:28:42;;;;;;;4.82;2.92;;;12.50;99.90;;;;;;5071616;28;20052;-85
2021/07/30 05:31:17;;;;;;;3.83;2.78;;;13.70;99.90;;;;;;5071414;28;20084;-85
2021/07/30 05:33:44;;;;;;;5.00;2.83;;;15.30;99.90;;;;;;5071111;28;20055;-84
2021/07/30 05:36:19;;;;;;;2.40;2.20;;;16.70;99.90;;;;;;5070908;28;20052;-85
2021/07/30 05:38:48;;;;;;;4.25;2.47;;;18.30;99.90;;;;;;5073335;28;20136;-84
2021/07/30 05:41:16;;;;;;;2.58;2.33;;;19.40;99.90;;;;;;5073230;28;20416;-87
2021/07/30 05:43:44;;;;;;;3.83;2.33;;;20.00;99.90;;;;;;5075273;28;20485;-86
2021/07/30 05:46:14;;;;;;;4.93;2.38;;;20.60;99.90;;;;;;5075135;28;20054;-86
2021/07/30 05:48:41;;;;;;;5.05;2.67;;;20.90;99.90;;;;;;5074645;28;20131;-85
2021/07/30 05:51:09;;;;;;;2.22;2.13;;;21.20;99.90;;;;;;5075160;28;20119;-86
2021/07/30 05:53:36;;;;;;;1.98;1.88;;;22.10;99.90;;;;;;5074950;28;20511;-86
2021/07/30 05:56:03;;;;;;;3.20;2.15;;;23.00;99.90;;;;;;5074501;28;20489;-85
2021/07/30 05:58:33;;;;;;;2.17;2.08;;;23.70;99.90;;;;;;5074725;28;20048;-86
2021/07/30 06:01:00;;;;;;;5.07;1.95;;;24.50;98.30;;;;;;5074648;28;20654;-86
2021/07/30 06:03:27;;;;;;;2.40;1.70;;;24.90;96.50;;;;;;5074518;28;20051;-85
2021/07/30 06:05:54;;;;;;;2.60;1.83;;;25.70;93.80;;;;;;5074397;28;20406;-85
2021/07/30 06:08:21;;;;;;;2.15;1.95;;;25.80;91.80;;;;;;5075555;28;20053;-85
2021/07/30 06:10:48;;;;;;;2.00;1.90;;;25.60;91.30;;;;;;5073978;28;20412;-85
2021/07/30 06:13:15;;;;;;;5.18;1.98;;;26.00;91.00;;;;;;5074693;28;20055;-85
2021/07/30 06:15:41;;;;;;;4.05;1.80;;;26.80;89.40;;;;;;5075195;28;20050;-85
2021/07/30 06:18:08;;;;;;;2.25;1.60;;;27.50;86.20;;;;;;5074808;28;20056;-85
2021/07/30 06:20:35;;;;;;;4.18;1.75;;;27.60;81.90;;;;;;5074525;28;20048;-84
2021/07/30 06:23:02;;;;;;;2.88;1.52;;;26.90;83.50;;;;;;5073846;28;20135;-86
2021/07/30 06:25:29;;;;;;;2.80;1.88;;;26.30;84.80;;;;;;5073699;28;20091;-86
2021/07/30 06:27:56;;;;;;;7.47;1.90;;;25.80;84.50;;;;;;5074084;28;20044;-85
2021/07/30 06:30:22;;;;;;;2.17;1.58;;;24.50;88.90;;;;;;5074005;28;20054;-86
2021/07/30 06:32:49;;;;;;;6.93;2.22;;;24.00;90.60;;;;;;5073901;28;20405;-85
2021/07/30 06:35:16;;;;;;;4.97;2.00;;;24.30;90.60;;;;;;5074030;28;20045;-85
2021/07/30 06:37:43;;;;;;;7.65;2.45;;;24.50;91.00;;;;;;5073879;28;20049;-86
2021/07/30 06:40:10;;;;;;;3.67;1.83;;;24.20;92.30;;;;;;5074023;28;20493;-86
2021/07/30 06:42:37;;;;;;;2.08;1.88;;;24.80;90.70;;;;;;5073047;28;20139;-85
2021/07/30 06:45:06;;;;;;;2.25;2.05;;;26.00;90.50;;;;;;5074860;28;20493;-85
2021/07/30 06:47:34;;;;;;;1.92;1.70;;;27.00;87.30;;;;;;5074876;28;20098;-86
2021/07/30 06:50:03;;;;;;;12.77;3.83;;;28.40;83.80;;;;;;5073454;28;20075;-86
2021/07/30 06:52:31;;;;;;;13.23;3.70;;;29.00;78.30;;;;;;5072586;28;20053;-86
2021/07/30 06:54:58;;;;;;;12.90;3.70;;;29.40;76.10;;;;;;5073353;28;20041;-85
2021/07/30 06:57:25;;;;;;;15.50;3.83;;;29.50;76.10;;;;;;5073400;28;20048;-86
2021/07/30 06:59:52;;;;;;;11.15;2.95;;;28.90;74.50;;;;;;5074469;28;20055;-86
2021/07/30 07:02:19;;;;;;;10.77;3.10;;;28.50;76.10;;;;;;5074007;28;20052;-85
2021/07/30 07:04:46;;;;;;;5.82;2.72;;;28.90;76.60;;;;;;5075377;28;20064;-85
2021/07/30 07:07:13;;;;;;;3.65;2.10;;;29.40;74.50;;;;;;5074282;28;20044;-86
2021/07/30 07:09:39;;;;;;;4.38;2.63;;;30.10;73.80;;;;;;5073031;28;20044;-86
2021/07/30 07:12:06;;;;;;;9.15;3.47;;;31.40;70.50;;;;;;5073229;28;20048;-85
2021/07/30 07:14:33;;;;;;;3.38;2.25;;;31.70;67.60;;;;;;5073186;28;20140;-85
2021/07/30 07:17:00;;;;;;;1.80;1.60;;;32.80;65.90;;;;;;5073074;28;20124;-86
2021/07/30 07:19:28;;;;;;;4.60;1.70;;;34.20;62.90;;;;;;5073011;28;20110;-85
2021/07/30 07:21:58;;;;;;;3.92;1.92;;;35.00;60.70;;;;;;5073047;28;20055;-84
2021/07/30 07:24:25;;;;;;;5.97;2.38;;;35.50;58.70;;;;;;5073816;28;20048;-86
2021/07/30 07:26:52;;;;;;;4.85;2.10;;;34.50;59.10;;;;;;5072815;28;20050;-84
2021/07/30 07:29:19;;;;;;;5.90;3.30;;;34.30;59.00;;;;;;5074027;28;20053;-85
2021/07/30 07:31:46;;;;;;;2.50;2.30;;;34.80;57.60;;;;;;5072769;28;20044;-85
2021/07/30 07:34:13;;;;;;;2.33;1.60;;;32.80;59.20;;;;;;5073811;28;20056;-84
2021/07/30 07:36:40;;;;;;;1.73;1.20;;;33.20;58.00;;;;;;5072293;28;20068;-85
2021/07/30 07:39:06;;;;;;;4.35;1.30;;;32.10;56.60;;;;;;5073678;28;20047;-84
2021/07/30 07:41:33;;;;;;;1.83;1.50;;;32.60;57.80;;;;;;5073830;28;20075;-85
2021/07/30 07:44:01;;;;;;;1.40;1.30;;;33.30;56.50;;;;;;5072536;28;20052;-85
2021/07/30 07:46:27;;;;;;;1.70;1.30;;;34.30;57.10;;;;;;5072099;28;20052;-85
2021/07/30 07:48:54;;;;;;;3.85;1.40;;;34.50;56.00;;;;;;5072794;28;20075;-86
2021/07/30 07:51:21;;;;;;;3.10;1.75;;;32.90;55.20;;;;;;5072373;28;20041;-86
2021/07/30 07:53:48;;;;;;;2.40;1.30;;;32.00;56.30;;;;;;5072993;28;20053;-87
2021/07/30 07:56:15;;;;;;;1.85;1.48;;;31.30;57.70;;;;;;5072661;28;20045;-88
2021/07/30 07:58:41;;;;;;;3.50;1.40;;;31.10;58.30;;;;;;5072511;28;20489;-84
2021/07/30 08:01:13;;;;;;;1.60;1.33;;;30.20;59.60;;;;;;5072265;28;20044;-84
2021/07/30 08:03:40;;;;;;;4.80;1.63;;;30.30;60.60;;;;;;5072229;28;20400;-86
2021/07/30 08:06:07;;;;;;;9.10;3.67;;;30.30;61.10;;;;;;5072490;28;20052;-87
2021/07/30 08:08:34;;;;;;;1.92;1.08;;;31.40;58.20;;;;;;5073455;28;20078;-86
2021/07/30 08:11:03;;;;;;;2.80;1.30;;;31.40;57.00;;;;;;5072669;28;20404;-85
2021/07/30 08:13:30;;;;;;;1.10;1.00;;;30.60;57.20;;;;;;5072879;28;20090;-86
2021/07/30 08:15:56;;;;;;;1.30;1.20;;;30.80;58.40;;;;;;5072330;28;20155;-86
2021/07/30 08:18:23;;;;;;;6.00;1.40;;;31.80;57.60;;;;;;5072356;28;20500;-90
2021/07/30 08:20:50;;;;;;;3.47;1.30;;;32.30;56.20;;;;;;5075649;28;20044;-88
2021/07/30 08:23:17;;;;;;;1.45;1.35;;;31.70;56.30;;;;;;5072484;28;20433;-89
2021/07/30 08:25:44;;;;;;;2.33;1.33;;;32.30;56.70;;;;;;5072343;28;20400;-89
2021/07/30 08:28:11;;;;;;;3.63;1.10;;;32.70;56.40;;;;;;5072057;28;20481;-88
2021/07/30 08:30:38;;;;;;;4.15;1.45;;;33.20;55.00;;;;;;5072244;28;20045;-90
2021/07/30 08:33:04;;;;;;;10.13;1.30;;;32.30;55.10;;;;;;5071997;28;20044;-85
2021/07/30 08:35:33;;;;;;;4.28;1.60;;;31.50;56.30;;;;;;5073110;28;20572;-86
2021/07/30 08:38:00;;;;;;;5.55;1.70;;;31.00;57.40;;;;;;5072497;28;20049;-85
2021/07/30 08:40:33;;;;;;;1.60;1.50;;;30.60;58.40;;;;;;5071939;28;20044;-90
2021/07/30 08:43:00;;;;;;;2.15;1.30;;;30.70;57.70;;;;;;5073348;28;20052;-88
2021/07/30 08:45:27;;;;;;;4.70;1.02;;;31.30;58.70;;;;;;5072201;28;20412;-87
2021/07/30 08:47:54;;;;;;;4.72;1.17;;;33.50;56.90;;;;;;5073259;28;20052;-93
2021/07/30 08:50:21;;;;;;;4.25;1.50;;;34.60;54.50;;;;;;5072819;28;20048;-85
2021/07/30 08:52:56;;;;;;;4.82;1.30;;;34.00;53.40;;;;;;5073706;28;20084;-87
2021/07/30 08:55:30;;;;;;;4.70;1.13;;;34.50;54.50;;;;;;5073936;28;20132;-87
2021/07/30 08:57:57;;;;;;;2.25;1.10;;;36.60;51.70;;;;;;5073979;28;20058;-88
2021/07/30 09:00:24;;;;;;;3.20;1.20;;;37.10;50.30;;;;;;5072292;28;20048;-90
2021/07/30 09:02:55;;;;;;;3.13;1.20;;;37.80;49.20;;;;;;5072854;28;20644;-89
2021/07/30 09:05:30;;;;;;;4.18;1.48;;;36.00;48.70;;;;;;5072384;28;20080;-86
2021/07/30 09:08:00;;;;;;;1.20;1.10;;;33.90;50.90;;;;;;5072114;28;20560;-88
2021/07/30 09:10:32;;;;;;;1.00;1.00;;;33.00;53.40;;;;;;5072100;28;20056;-85
2021/07/30 09:13:14;;;;;;;3.72;1.30;;;32.60;54.70;;;;;;5073599;28;20064;-88
2021/07/30 09:15:42;;;;;;;2.78;1.10;;;32.00;53.70;;;;;;5073266;28;20045;-89
2021/07/30 09:18:26;;;;;;;3.95;1.50;;;32.20;54.40;;;;;;5076512;28;20060;-87
2021/07/30 09:20:53;;;;;;;;;;;33.70;54.50;;;;;;5076855;28;20052;-86
2021/07/30 09:23:20;;;;;;;1.85;1.00;;;33.70;53.80;;;;;;5076969;28;19974;-88
2021/07/30 09:25:47;;;;;;;2.22;1.50;;;35.00;52.30;;;;;;5078077;28;20045;-89
2021/07/30 09:28:13;;;;;;;2.45;1.15;;;34.70;50.80;;;;;;5077729;28;20052;-88
2021/07/30 09:30:40;;;;;;;6.40;1.40;;;35.60;51.30;;;;;;5076569;28;20055;-89
2021/07/30 09:33:07;;;;;;;2.67;1.55;;;35.90;50.20;;;;;;5076106;28;20056;-86
2021/07/30 09:35:57;;;;;;;3.45;1.55;;;35.90;50.10;;;;;;5075265;28;20059;-86
2021/07/30 09:38:24;;;;;;;1.77;1.30;;;34.70;51.30;;;;;;5070828;28;20044;-88
2021/07/30 09:41:10;;;;;;;3.88;1.60;;;35.00;51.60;;;;;;5076924;28;20048;-86
2021/07/30 09:43:38;;;;;;;3.80;1.15;;;35.10;52.30;;;;;;5074737;28;20052;-88
2021/07/30 09:46:14;;;;;;;3.95;1.52;;;35.90;49.80;;;;;;5074536;28;20055;-88
2021/07/30 09:48:48;;;;;;;3.38;1.45;;;34.30;51.50;;;;;;5074493;28;20051;-83
2021/07/30 09:51:15;;;;;;;3.95;1.30;;;34.40;52.40;;;;;;5074383;28;20048;-89
2021/07/30 09:53:46;;;;;;;1.77;1.48;;;33.60;52.20;;;;;;5074228;28;20388;-87
2021/07/30 09:56:15;;;;;;;4.97;1.67;;;35.00;53.20;;;;;;5075785;28;20044;-84
2021/07/30 09:58:45;;;;;;;7.28;2.92;;;36.30;50.30;;;;;;5074109;28;20048;-85
2021/07/30 10:01:22;;;;;;;2.55;1.55;;;35.60;50.50;;;;;;5074681;28;20131;-84
2021/07/30 10:03:53;;;;;;;3.67;1.40;;;34.60;51.70;;;;;;5074387;28;20489;-85
2021/07/30 10:06:20;;;;;;;2.38;1.35;;;35.50;51.40;;;;;;5074359;28;20051;-87
2021/07/30 10:08:47;;;;;;;1.83;1.70;;;36.70;50.50;;;;;;5074373;28;20048;-83
2021/07/30 10:11:14;;;;;;;4.45;1.88;;;36.20;50.00;;;;;;5074272;28;20135;-90
2021/07/30 10:13:51;;;;;;;3.53;1.90;;;35.60;50.90;;;;;;5074591;28;20155;-86
2021/07/30 10:16:20;;;;;;;1.98;1.60;;;36.50;50.20;;;;;;5075601;28;20045;-87
2021/07/30 10:18:49;;;;;;;2.58;1.50;;;36.30;49.80;;;;;;5074633;28;20088;-85
2021/07/30 10:21:21;;;;;;;4.55;1.63;;;34.60;50.20;;;;;;5074617;28;20048;-85
2021/07/30 10:23:51;;;;;;;1.52;1.42;;;34.70;50.50;;;;;;5075350;28;20052;-87
2021/07/30 10:26:24;;;;;;;3.05;1.50;;;32.60;52.80;;;;;;5074162;28;20041;-86
2021/07/30 10:28:56;;;;;;;1.40;1.30;;;32.70;53.60;;;;;;5074677;28;20052;-88
2021/07/30 10:31:47;;;;;;;2.22;1.77;;;34.60;54.20;;;;;;5075683;28;20437;-86
2021/07/30 10:34:35;;;;;;;1.70;1.60;;;34.80;50.90;;;;;;5074230;28;20048;-87
2021/07/30 10:37:02;;;;;;;3.17;1.73;;;35.10;52.70;;;;;;5063594;28;20404;-86
2021/07/30 10:39:29;;;;;;;2.70;1.40;;;34.30;52.00;;;;;;5074473;28;20048;-86
2021/07/30 10:42:13;;;;;;;2.08;1.70;;;35.90;51.00;;;;;;5074216;28;20052;-86
2021/07/30 10:45:17;;;;;;;3.13;1.52;;;37.20;49.50;;;;;;5074118;28;20181;-87
2021/07/30 10:47:44;;;;;;;2.10;1.48;;;37.10;49.20;;;;;;5074333;28;20139;-85
2021/07/30 10:50:40;;;;;;;1.60;1.50;;;36.30;48.90;;;;;;5074692;28;20047;-85
2021/07/30 10:53:36;;;;;;;2.72;1.67;;;35.00;49.30;;;;;;5066736;28;20049;-86
2021/07/30 10:56:27;;;;;;;2.60;1.63;;;35.80;49.80;;;;;;5073165;28;20047;-90
2021/07/30 10:58:54;;;;;;;4.38;1.77;;;36.80;49.10;;;;;;5072789;28;20052;-86
2021/07/30 11:01:23;;;;;;;2.25;1.42;;;37.60;48.60;;;;;;5080192;28;20068;-86
2021/07/30 11:03:53;;;;;;;1.80;1.63;;;36.90;47.00;;;;;;5073471;28;20048;-87
2021/07/30 11:06:21;;;;;;;1.80;1.40;;;36.40;50.40;;;;;;5074115;28;20055;-86
2021/07/30 11:09:08;;;;;;;3.08;1.50;;;36.80;49.40;;;;;;5073324;28;20119;-86
2021/07/30 11:11:46;;;;;;;4.53;1.40;;;36.80;47.20;;;;;;5074745;28;20052;-87
2021/07/30 11:14:13;;;;;;;3.22;1.55;;;36.60;48.10;;;;;;5073551;28;20080;-86
2021/07/30 11:16:40;;;;;;;2.25;1.40;;;35.50;48.70;;;;;;5073737;28;20110;-86
2021/07/30 11:19:08;;;;;;;4.03;1.40;;;35.70;48.20;;;;;;5073803;28;20079;-92
2021/07/30 11:21:35;;;;;;;4.68;1.50;;;36.00;49.60;;;;;;5073080;28;20055;-88
2021/07/30 11:24:03;;;;;;;2.60;1.38;;;35.70;49.80;;;;;;5073231;28;20084;-87
2021/07/30 11:26:31;;;;;;;2.25;1.58;;;37.00;48.90;;;;;;5073782;28;20071;-88
2021/07/30 11:29:05;;;;;;;1.25;1.25;;;37.50;47.50;;;;;;5074262;28;20044;-94
2021/07/30 11:31:34;;;;;;;2.70;1.25;;;38.10;47.10;;;;;;5073212;28;20052;-87
2021/07/30 11:34:01;;;;;;;1.85;1.17;;;37.80;47.60;;;;;;5074351;28;20052;-87
2021/07/30 11:36:28;;;;;;;1.80;1.48;;;38.00;46.90;;;;;;5073022;28;20173;-86
2021/07/30 11:38:57;;;;;;;1.55;1.45;;;37.20;47.30;;;;;;5073182;28;20459;-87
2021/07/30 11:41:24;;;;;;;1.63;1.50;;;37.30;48.60;;;;;;5073652;28;20044;-86
2021/07/30 11:44:06;;;;;;;4.82;1.58;;;37.80;48.50;;;;;;5073311;28;20436;-86
2021/07/30 11:46:34;;;;;;;1.15;1.15;;;36.60;47.70;;;;;;5072941;28;20503;-86
2021/07/30 11:49:03;;;;;;;3.70;1.85;;;35.30;48.40;;;;;;5073747;28;20048;-88
2021/07/30 11:51:30;;;;;;;2.45;1.30;;;35.40;49.90;;;;;;5072556;28;20049;-89
2021/07/30 11:53:57;;;;;;;2.35;1.58;;;33.60;50.00;;;;;;5072943;28;20059;-83
2021/07/30 11:56:24;;;;;;;2.28;2.08;;;31.60;53.10;;;;;;5072412;28;20048;-85
2021/07/30 11:59:02;;;;;;;3.47;1.75;;;30.10;55.50;;;;;;5073636;28;20052;-86
2021/07/30 12:01:31;;;;;;;4.40;1.88;;;29.60;57.10;;;;;;5072775;28;20127;-85
2021/07/30 12:04:12;;;;;;;2.00;1.80;;;29.10;57.60;;;;;;5073082;28;20056;-85
2021/07/30 12:06:48;;;;;;;2.33;1.60;;;28.60;58.70;;;;;;5072949;28;20068;-84
2021/07/30 12:09:16;;;;;;;2.25;1.77;;;28.10;60.80;;;;;;5072379;28;20050;-85
2021/07/30 12:11:55;;;;;;;2.10;2.00;;;28.00;63.60;;;;;;5071283;28;20493;-93
2021/07/30 12:14:26;;;;;;;3.28;1.52;;;28.10;61.30;;;;;;5071467;28;20044;-87
2021/07/30 12:16:54;;;;;;;2.78;1.85;;;27.90;61.70;;;;;;5073250;28;20132;-85
2021/07/30 12:19:34;;;;;;;5.22;1.88;;;27.60;63.00;;;;;;5077521;28;20450;-86
2021/07/30 12:22:02;;;;;;;1.80;1.50;;;27.70;63.20;;;;;;5079498;28;20106;-87
2021/07/30 12:24:31;;;;;;;1.83;1.73;;;27.70;61.20;;;;;;5073480;28;20050;-89
2021/07/30 12:27:17;;;;;;;2.55;1.88;;;27.80;61.80;;;;;;5072964;28;20135;-88
2021/07/30 12:29:48;;;;;;;1.80;1.67;;;27.80;62.40;;;;;;5072767;28;20117;-85
2021/07/30 12:32:23;;;;;;;3.47;2.00;;;27.80;61.90;;;;;;5072255;28;20048;-86
2021/07/30 12:34:57;;;;;;;4.00;1.95;;;27.60;62.40;;;;;;5072175;28;20048;-91
2021/07/30 12:37:25;;;;;;;4.28;1.75;;;27.30;61.30;;;;;;5071699;28;20064;-89
2021/07/30 12:39:56;;;;;;;4.90;2.67;;;26.90;62.30;;;;;;5071308;28;20132;-87
2021/07/30 12:42:35;;;;;;;2.70;1.63;;;26.60;62.40;;;;;;5071303;28;20055;-86
2021/07/30 12:45:13;;;;;;;5.70;1.95;;;26.40;63.80;;;;;;5071637;28;20071;-84
2021/07/30 12:47:57;;;;;;;1.88;1.75;;;26.30;64.70;;;;;;5072815;28;20054;-87
2021/07/30 12:50:30;;;;;;;5.35;2.13;;;26.40;65.20;;;;;;5071104;28;20139;-89
2021/07/30 12:53:11;;;;;;;1.87;1.77;;;26.60;64.80;;;;;;5071961;28;20058;-87
2021/07/30 12:56:00;;;;;;;5.38;1.88;;;26.70;65.80;;;;;;5071520;28;20056;-86